sensor_id;sensor_type;location;lat;lon;timestamp;P1;durP1;ratioP1;P2;durP2;ratioP2
36995;SDS011;22905;50.340;10.776;2023-08-21T00:09:53;41.72;;;27.52;;
36995;SDS011;22905;50.340;10.776;2023-08-21T00:14:53;42.47;;;28.77;;
36995;SDS011;22905;50.340;10.776;2023-08-21T00:19:54;42.70;;;28.17;;
36995;SDS011;22905;50.340;10.776;2023-08-21T00:24:54;45.37;;;28.47;;
36995;SDS011;22905;50.340;10.776;2023-08-21T00:29:54;42.50;;;27.85;;
36995;SDS011;22905;50.340;10.776;2023-08-21T00:34:54;46.72;;;29.17;;
36995;SDS011;22905;50.340;10.776;2023-08-21T00:39:55;44.03;;;27.77;;
36995;SDS011;22905;50.340;10.776;2023-08-21T00:44:55;39.70;;;26.87;;
36995;SDS011;22905;50.340;10.776;2023-08-21T00:49:56;40.33;;;26.58;;
36995;SDS011;22905;50.340;10.776;2023-08-21T00:54:56;42.92;;;25.90;;
36995;SDS011;22905;50.340;10.776;2023-08-21T00:59:57;37.17;;;25.10;;
36995;SDS011;22905;50.340;10.776;2023-08-21T01:04:59;43.45;;;26.45;;
36995;SDS011;22905;50.340;10.776;2023-08-21T01:10:03;36.80;;;24.87;;
36995;SDS011;22905;50.340;10.776;2023-08-21T01:15:10;39.33;;;25.70;;
36995;SDS011;22905;50.340;10.776;2023-08-21T01:20:10;40.13;;;26.33;;
36995;SDS011;22905;50.340;10.776;2023-08-21T01:25:11;43.28;;;28.10;;
36995;SDS011;22905;50.340;10.776;2023-08-21T01:30:12;42.80;;;27.48;;
36995;SDS011;22905;50.340;10.776;2023-08-21T01:35:12;37.60;;;26.17;;
36995;SDS011;22905;50.340;10.776;2023-08-21T01:40:19;42.67;;;29.05;;
36995;SDS011;22905;50.340;10.776;2023-08-21T01:45:21;44.78;;;28.33;;
36995;SDS011;22905;50.340;10.776;2023-08-21T01:50:21;52.35;;;29.40;;
36995;SDS011;22905;50.340;10.776;2023-08-21T01:55:21;44.70;;;28.63;;
36995;SDS011;22905;50.340;10.776;2023-08-21T02:00:22;39.15;;;27.27;;
36995;SDS011;22905;50.340;10.776;2023-08-21T02:05:22;41.85;;;28.63;;
36995;SDS011;22905;50.340;10.776;2023-08-21T02:10:22;40.73;;;27.57;;
36995;SDS011;22905;50.340;10.776;2023-08-21T02:15:23;45.63;;;29.37;;
36995;SDS011;22905;50.340;10.776;2023-08-21T02:20:23;44.83;;;28.90;;
36995;SDS011;22905;50.340;10.776;2023-08-21T02:25:23;45.67;;;29.87;;
36995;SDS011;22905;50.340;10.776;2023-08-21T02:30:24;34.72;;;25.13;;
36995;SDS011;22905;50.340;10.776;2023-08-21T02:35:27;34.17;;;22.70;;
36995;SDS011;22905;50.340;10.776;2023-08-21T02:40:27;38.22;;;23.23;;
36995;SDS011;22905;50.340;10.776;2023-08-21T02:45:27;35.17;;;23.55;;
36995;SDS011;22905;50.340;10.776;2023-08-21T02:50:28;37.45;;;24.67;;
36995;SDS011;22905;50.340;10.776;2023-08-21T02:55:28;41.25;;;26.00;;
36995;SDS011;22905;50.340;10.776;2023-08-21T03:00:28;40.15;;;26.73;;
36995;SDS011;22905;50.340;10.776;2023-08-21T03:05:29;37.65;;;26.27;;
36995;SDS011;22905;50.340;10.776;2023-08-21T03:10:29;37.55;;;26.42;;
36995;SDS011;22905;50.340;10.776;2023-08-21T03:15:34;38.28;;;25.45;;
36995;SDS011;22905;50.340;10.776;2023-08-21T03:20:34;37.78;;;24.38;;
36995;SDS011;22905;50.340;10.776;2023-08-21T03:25:35;41.72;;;26.08;;
36995;SDS011;22905;50.340;10.776;2023-08-21T03:30:35;42.72;;;26.65;;
36995;SDS011;22905;50.340;10.776;2023-08-21T03:35:35;34.47;;;25.38;;
36995;SDS011;22905;50.340;10.776;2023-08-21T03:40:37;36.88;;;24.40;;
36995;SDS011;22905;50.340;10.776;2023-08-21T03:45:37;36.07;;;24.83;;
36995;SDS011;22905;50.340;10.776;2023-08-21T03:50:38;34.93;;;25.07;;
36995;SDS011;22905;50.340;10.776;2023-08-21T03:55:38;44.25;;;26.60;;
36995;SDS011;22905;50.340;10.776;2023-08-21T04:00:38;33.58;;;25.00;;
36995;SDS011;22905;50.340;10.776;2023-08-21T04:05:39;33.17;;;24.60;;
36995;SDS011;22905;50.340;10.776;2023-08-21T04:10:39;41.73;;;26.53;;
36995;SDS011;22905;50.340;10.776;2023-08-21T04:15:44;39.33;;;26.45;;
36995;SDS011;22905;50.340;10.776;2023-08-21T04:20:47;43.88;;;27.83;;
36995;SDS011;22905;50.340;10.776;2023-08-21T04:25:47;36.92;;;25.85;;
36995;SDS011;22905;50.340;10.776;2023-08-21T04:30:48;37.63;;;25.75;;
36995;SDS011;22905;50.340;10.776;2023-08-21T04:35:48;42.07;;;27.80;;
36995;SDS011;22905;50.340;10.776;2023-08-21T04:40:48;40.60;;;26.85;;
36995;SDS011;22905;50.340;10.776;2023-08-21T04:45:49;41.07;;;29.13;;
36995;SDS011;22905;50.340;10.776;2023-08-21T04:50:50;42.08;;;28.65;;
36995;SDS011;22905;50.340;10.776;2023-08-21T04:55:51;39.75;;;26.77;;
36995;SDS011;22905;50.340;10.776;2023-08-21T05:00:51;40.58;;;25.77;;
36995;SDS011;22905;50.340;10.776;2023-08-21T05:05:52;34.92;;;23.35;;
36995;SDS011;22905;50.340;10.776;2023-08-21T05:10:57;37.53;;;25.13;;
36995;SDS011;22905;50.340;10.776;2023-08-21T05:15:58;39.88;;;26.25;;
36995;SDS011;22905;50.340;10.776;2023-08-21T05:20:58;43.38;;;24.70;;
36995;SDS011;22905;50.340;10.776;2023-08-21T05:25:58;32.80;;;25.15;;
36995;SDS011;22905;50.340;10.776;2023-08-21T05:30:59;33.80;;;22.93;;
36995;SDS011;22905;50.340;10.776;2023-08-21T05:35:59;37.75;;;24.38;;
36995;SDS011;22905;50.340;10.776;2023-08-21T05:41:00;29.60;;;23.45;;
36995;SDS011;22905;50.340;10.776;2023-08-21T05:46:00;32.70;;;23.10;;
36995;SDS011;22905;50.340;10.776;2023-08-21T05:51:01;31.95;;;22.13;;
36995;SDS011;22905;50.340;10.776;2023-08-21T05:56:01;36.13;;;22.60;;
36995;SDS011;22905;50.340;10.776;2023-08-21T06:01:02;29.67;;;21.03;;
36995;SDS011;22905;50.340;10.776;2023-08-21T06:06:02;31.00;;;21.07;;
36995;SDS011;22905;50.340;10.776;2023-08-21T06:11:03;28.63;;;20.02;;
36995;SDS011;22905;50.340;10.776;2023-08-21T06:16:03;32.17;;;21.45;;
36995;SDS011;22905;50.340;10.776;2023-08-21T06:21:03;28.45;;;21.80;;
36995;SDS011;22905;50.340;10.776;2023-08-21T06:26:04;26.13;;;20.20;;
36995;SDS011;22905;50.340;10.776;2023-08-21T06:31:04;30.58;;;19.80;;
36995;SDS011;22905;50.340;10.776;2023-08-21T06:36:07;28.80;;;20.48;;
36995;SDS011;22905;50.340;10.776;2023-08-21T06:41:07;28.85;;;20.42;;
36995;SDS011;22905;50.340;10.776;2023-08-21T06:46:07;22.92;;;19.13;;
36995;SDS011;22905;50.340;10.776;2023-08-21T06:51:08;27.87;;;20.40;;
36995;SDS011;22905;50.340;10.776;2023-08-21T06:56:08;28.63;;;19.75;;
36995;SDS011;22905;50.340;10.776;2023-08-21T07:01:09;25.58;;;18.88;;
36995;SDS011;22905;50.340;10.776;2023-08-21T07:06:09;27.67;;;19.73;;
36995;SDS011;22905;50.340;10.776;2023-08-21T07:11:10;25.77;;;18.57;;
36995;SDS011;22905;50.340;10.776;2023-08-21T07:16:10;26.35;;;18.55;;
36995;SDS011;22905;50.340;10.776;2023-08-21T07:21:10;34.40;;;16.33;;
36995;SDS011;22905;50.340;10.776;2023-08-21T07:26:11;23.53;;;15.17;;
36995;SDS011;22905;50.340;10.776;2023-08-21T07:31:11;17.50;;;14.47;;
36995;SDS011;22905;50.340;10.776;2023-08-21T07:36:11;15.48;;;12.88;;
36995;SDS011;22905;50.340;10.776;2023-08-21T07:41:17;17.30;;;13.90;;
36995;SDS011;22905;50.340;10.776;2023-08-21T07:46:17;20.60;;;13.02;;
36995;SDS011;22905;50.340;10.776;2023-08-21T07:51:18;17.93;;;13.93;;
36995;SDS011;22905;50.340;10.776;2023-08-21T07:56:18;20.30;;;12.77;;
36995;SDS011;22905;50.340;10.776;2023-08-21T08:01:19;15.15;;;13.27;;
36995;SDS011;22905;50.340;10.776;2023-08-21T08:06:20;14.43;;;12.40;;
36995;SDS011;22905;50.340;10.776;2023-08-21T08:11:21;17.87;;;13.30;;
36995;SDS011;22905;50.340;10.776;2023-08-21T08:16:21;16.70;;;12.93;;
36995;SDS011;22905;50.340;10.776;2023-08-21T08:21:21;15.27;;;11.70;;
36995;SDS011;22905;50.340;10.776;2023-08-21T08:26:22;17.90;;;11.43;;
36995;SDS011;22905;50.340;10.776;2023-08-21T08:31:22;15.77;;;12.03;;
36995;SDS011;22905;50.340;10.776;2023-08-21T08:36:23;21.73;;;13.30;;
36995;SDS011;22905;50.340;10.776;2023-08-21T08:41:33;15.15;;;11.18;;
36995;SDS011;22905;50.340;10.776;2023-08-21T08:46:44;16.27;;;10.90;;
36995;SDS011;22905;50.340;10.776;2023-08-21T08:51:44;14.98;;;9.25;;
36995;SDS011;22905;50.340;10.776;2023-08-21T09:01:46;15.43;;;9.60;;
36995;SDS011;22905;50.340;10.776;2023-08-21T09:06:46;10.70;;;7.57;;
36995;SDS011;22905;50.340;10.776;2023-08-21T09:11:47;9.15;;;6.65;;
36995;SDS011;22905;50.340;10.776;2023-08-21T09:16:59;12.83;;;7.00;;
36995;SDS011;22905;50.340;10.776;2023-08-21T09:22:11;11.50;;;7.15;;
36995;SDS011;22905;50.340;10.776;2023-08-21T09:27:16;10.35;;;7.60;;
36995;SDS011;22905;50.340;10.776;2023-08-21T09:32:16;9.27;;;7.05;;
36995;SDS011;22905;50.340;10.776;2023-08-21T09:37:17;12.17;;;6.67;;
36995;SDS011;22905;50.340;10.776;2023-08-21T09:42:17;8.90;;;6.50;;
36995;SDS011;22905;50.340;10.776;2023-08-21T09:47:18;12.90;;;10.50;;
36995;SDS011;22905;50.340;10.776;2023-08-21T09:52:19;18.45;;;7.75;;
36995;SDS011;22905;50.340;10.776;2023-08-21T09:57:19;7.03;;;6.30;;
36995;SDS011;22905;50.340;10.776;2023-08-21T10:02:23;9.60;;;6.38;;
36995;SDS011;22905;50.340;10.776;2023-08-21T10:07:24;7.03;;;5.97;;
36995;SDS011;22905;50.340;10.776;2023-08-21T10:12:26;11.73;;;6.90;;
36995;SDS011;22905;50.340;10.776;2023-08-21T10:17:26;7.60;;;5.90;;
36995;SDS011;22905;50.340;10.776;2023-08-21T10:22:38;9.07;;;6.17;;
36995;SDS011;22905;50.340;10.776;2023-08-21T10:27:45;8.82;;;5.32;;
36995;SDS011;22905;50.340;10.776;2023-08-21T10:32:49;13.07;;;5.50;;
36995;SDS011;22905;50.340;10.776;2023-08-21T10:48:38;8.25;;;5.75;;
36995;SDS011;22905;50.340;10.776;2023-08-21T10:53:39;5.45;;;4.90;;
36995;SDS011;22905;50.340;10.776;2023-08-21T10:58:41;5.68;;;4.85;;
36995;SDS011;22905;50.340;10.776;2023-08-21T11:03:45;7.70;;;4.95;;
36995;SDS011;22905;50.340;10.776;2023-08-21T11:08:46;6.97;;;4.93;;
36995;SDS011;22905;50.340;10.776;2023-08-21T11:13:52;7.67;;;5.63;;
36995;SDS011;22905;50.340;10.776;2023-08-21T11:18:53;9.77;;;5.95;;
36995;SDS011;22905;50.340;10.776;2023-08-21T11:23:54;6.88;;;4.88;;
36995;SDS011;22905;50.340;10.776;2023-08-21T11:28:54;7.18;;;4.90;;
36995;SDS011;22905;50.340;10.776;2023-08-21T11:33:55;8.10;;;5.07;;
36995;SDS011;22905;50.340;10.776;2023-08-21T11:38:59;10.13;;;9.05;;
36995;SDS011;22905;50.340;10.776;2023-08-21T11:44:03;7.43;;;4.57;;
36995;SDS011;22905;50.340;10.776;2023-08-21T11:49:04;5.75;;;4.40;;
36995;SDS011;22905;50.340;10.776;2023-08-21T11:54:04;9.17;;;4.47;;
36995;SDS011;22905;50.340;10.776;2023-08-21T11:59:05;5.28;;;3.47;;
36995;SDS011;22905;50.340;10.776;2023-08-21T12:04:15;5.57;;;4.00;;
36995;SDS011;22905;50.340;10.776;2023-08-21T12:09:18;6.18;;;4.22;;
36995;SDS011;22905;50.340;10.776;2023-08-21T12:14:21;7.13;;;4.32;;
36995;SDS011;22905;50.340;10.776;2023-08-21T12:19:23;6.47;;;3.70;;
36995;SDS011;22905;50.340;10.776;2023-08-21T12:24:23;7.85;;;4.15;;
36995;SDS011;22905;50.340;10.776;2023-08-21T12:34:24;5.70;;;3.90;;
36995;SDS011;22905;50.340;10.776;2023-08-21T12:39:24;7.63;;;3.83;;
36995;SDS011;22905;50.340;10.776;2023-08-21T12:44:25;5.45;;;3.78;;
36995;SDS011;22905;50.340;10.776;2023-08-21T12:49:25;7.60;;;3.70;;
36995;SDS011;22905;50.340;10.776;2023-08-21T12:54:25;7.37;;;4.07;;
36995;SDS011;22905;50.340;10.776;2023-08-21T12:59:25;6.00;;;3.75;;
36995;SDS011;22905;50.340;10.776;2023-08-21T13:04:26;12.55;;;3.60;;
36995;SDS011;22905;50.340;10.776;2023-08-21T13:09:26;5.72;;;2.97;;
36995;SDS011;22905;50.340;10.776;2023-08-21T13:14:26;4.40;;;3.27;;
36995;SDS011;22905;50.340;10.776;2023-08-21T13:19:27;3.58;;;2.92;;
36995;SDS011;22905;50.340;10.776;2023-08-21T13:24:27;8.52;;;3.42;;
36995;SDS011;22905;50.340;10.776;2023-08-21T13:29:28;4.65;;;3.45;;
36995;SDS011;22905;50.340;10.776;2023-08-21T13:34:28;7.33;;;3.37;;
36995;SDS011;22905;50.340;10.776;2023-08-21T13:39:29;7.57;;;3.97;;
36995;SDS011;22905;50.340;10.776;2023-08-21T13:44:30;6.35;;;3.72;;
36995;SDS011;22905;50.340;10.776;2023-08-21T13:49:31;7.73;;;3.73;;
36995;SDS011;22905;50.340;10.776;2023-08-21T13:54:32;8.18;;;3.72;;
36995;SDS011;22905;50.340;10.776;2023-08-21T13:59:32;5.37;;;3.60;;
36995;SDS011;22905;50.340;10.776;2023-08-21T14:04:32;7.75;;;3.75;;
36995;SDS011;22905;50.340;10.776;2023-08-21T14:09:32;6.50;;;3.90;;
36995;SDS011;22905;50.340;10.776;2023-08-21T14:19:34;6.53;;;4.50;;
36995;SDS011;22905;50.340;10.776;2023-08-21T14:24:34;6.05;;;4.10;;
36995;SDS011;22905;50.340;10.776;2023-08-21T14:29:35;8.30;;;4.32;;
36995;SDS011;22905;50.340;10.776;2023-08-21T14:34:35;9.67;;;4.23;;
36995;SDS011;22905;50.340;10.776;2023-08-21T14:39:35;10.93;;;5.03;;
36995;SDS011;22905;50.340;10.776;2023-08-21T14:44:36;10.70;;;5.07;;
36995;SDS011;22905;50.340;10.776;2023-08-21T14:49:36;7.72;;;4.53;;
36995;SDS011;22905;50.340;10.776;2023-08-21T14:54:37;7.85;;;3.53;;
36995;SDS011;22905;50.340;10.776;2023-08-21T14:59:37;5.17;;;3.80;;
36995;SDS011;22905;50.340;10.776;2023-08-21T15:04:37;5.97;;;3.85;;
36995;SDS011;22905;50.340;10.776;2023-08-21T15:09:37;6.93;;;4.03;;
36995;SDS011;22905;50.340;10.776;2023-08-21T15:14:38;5.15;;;3.88;;
36995;SDS011;22905;50.340;10.776;2023-08-21T15:19:38;6.13;;;3.67;;
36995;SDS011;22905;50.340;10.776;2023-08-21T15:24:38;5.55;;;3.55;;
36995;SDS011;22905;50.340;10.776;2023-08-21T15:29:39;9.43;;;3.80;;
36995;SDS011;22905;50.340;10.776;2023-08-21T15:34:40;7.30;;;3.37;;
36995;SDS011;22905;50.340;10.776;2023-08-21T15:39:40;9.43;;;3.95;;
36995;SDS011;22905;50.340;10.776;2023-08-21T15:44:41;4.97;;;3.80;;
36995;SDS011;22905;50.340;10.776;2023-08-21T15:49:41;8.75;;;4.60;;
36995;SDS011;22905;50.340;10.776;2023-08-21T15:54:41;5.82;;;3.70;;
36995;SDS011;22905;50.340;10.776;2023-08-21T15:59:42;5.43;;;4.10;;
36995;SDS011;22905;50.340;10.776;2023-08-21T16:04:44;7.18;;;3.97;;
36995;SDS011;22905;50.340;10.776;2023-08-21T16:09:44;4.97;;;3.53;;
36995;SDS011;22905;50.340;10.776;2023-08-21T16:14:45;6.65;;;3.97;;
36995;SDS011;22905;50.340;10.776;2023-08-21T16:19:45;7.53;;;5.00;;
36995;SDS011;22905;50.340;10.776;2023-08-21T16:24:47;10.90;;;4.53;;
36995;SDS011;22905;50.340;10.776;2023-08-21T16:29:47;5.40;;;4.03;;
36995;SDS011;22905;50.340;10.776;2023-08-21T16:34:48;6.20;;;3.33;;
36995;SDS011;22905;50.340;10.776;2023-08-21T16:39:49;5.90;;;3.25;;
36995;SDS011;22905;50.340;10.776;2023-08-21T16:44:49;5.38;;;3.40;;
36995;SDS011;22905;50.340;10.776;2023-08-21T16:49:49;10.32;;;3.58;;
36995;SDS011;22905;50.340;10.776;2023-08-21T16:54:50;37.83;;;27.02;;
36995;SDS011;22905;50.340;10.776;2023-08-21T16:59:50;7.07;;;4.22;;
36995;SDS011;22905;50.340;10.776;2023-08-21T17:04:50;6.03;;;3.65;;
36995;SDS011;22905;50.340;10.776;2023-08-21T17:09:51;4.50;;;3.37;;
36995;SDS011;22905;50.340;10.776;2023-08-21T17:14:51;3.75;;;2.67;;
36995;SDS011;22905;50.340;10.776;2023-08-21T17:19:52;4.67;;;3.17;;
36995;SDS011;22905;50.340;10.776;2023-08-21T17:24:52;5.57;;;3.60;;
36995;SDS011;22905;50.340;10.776;2023-08-21T17:29:52;8.83;;;3.97;;
36995;SDS011;22905;50.340;10.776;2023-08-21T17:34:53;5.45;;;3.80;;
36995;SDS011;22905;50.340;10.776;2023-08-21T17:39:54;20.37;;;3.87;;
36995;SDS011;22905;50.340;10.776;2023-08-21T17:44:54;23.43;;;4.27;;
36995;SDS011;22905;50.340;10.776;2023-08-21T17:49:54;10.67;;;3.73;;
36995;SDS011;22905;50.340;10.776;2023-08-21T17:54:55;14.40;;;5.20;;
36995;SDS011;22905;50.340;10.776;2023-08-21T17:59:55;10.07;;;4.45;;
36995;SDS011;22905;50.340;10.776;2023-08-21T18:04:55;12.20;;;4.30;;
36995;SDS011;22905;50.340;10.776;2023-08-21T18:09:56;16.15;;;4.55;;
36995;SDS011;22905;50.340;10.776;2023-08-21T18:14:56;11.40;;;4.27;;
36995;SDS011;22905;50.340;10.776;2023-08-21T18:19:57;16.83;;;7.10;;
36995;SDS011;22905;50.340;10.776;2023-08-21T18:24:57;13.53;;;4.13;;
36995;SDS011;22905;50.340;10.776;2023-08-21T18:29:57;9.30;;;4.18;;
36995;SDS011;22905;50.340;10.776;2023-08-21T18:34:58;12.73;;;4.73;;
36995;SDS011;22905;50.340;10.776;2023-08-21T18:40:01;6.97;;;4.80;;
36995;SDS011;22905;50.340;10.776;2023-08-21T18:45:01;11.93;;;4.73;;
36995;SDS011;22905;50.340;10.776;2023-08-21T18:50:01;12.88;;;4.47;;
36995;SDS011;22905;50.340;10.776;2023-08-21T18:55:02;9.30;;;5.67;;
36995;SDS011;22905;50.340;10.776;2023-08-21T19:00:03;13.10;;;5.03;;
36995;SDS011;22905;50.340;10.776;2023-08-21T19:05:12;13.20;;;5.28;;
36995;SDS011;22905;50.340;10.776;2023-08-21T19:10:12;40.78;;;5.57;;
36995;SDS011;22905;50.340;10.776;2023-08-21T19:15:12;7.23;;;4.43;;
36995;SDS011;22905;50.340;10.776;2023-08-21T19:20:14;16.88;;;6.30;;
36995;SDS011;22905;50.340;10.776;2023-08-21T19:25:15;17.58;;;5.18;;
36995;SDS011;22905;50.340;10.776;2023-08-21T19:30:15;11.40;;;4.33;;
36995;SDS011;22905;50.340;10.776;2023-08-21T19:35:15;8.10;;;4.47;;
36995;SDS011;22905;50.340;10.776;2023-08-21T19:40:16;9.70;;;4.70;;
36995;SDS011;22905;50.340;10.776;2023-08-21T19:45:16;10.35;;;4.65;;
36995;SDS011;22905;50.340;10.776;2023-08-21T19:50:19;8.52;;;5.05;;
36995;SDS011;22905;50.340;10.776;2023-08-21T19:55:19;17.58;;;5.65;;
36995;SDS011;22905;50.340;10.776;2023-08-21T20:00:21;13.38;;;5.25;;
36995;SDS011;22905;50.340;10.776;2023-08-21T20:05:22;11.03;;;4.70;;
36995;SDS011;22905;50.340;10.776;2023-08-21T20:10:22;14.13;;;5.70;;
36995;SDS011;22905;50.340;10.776;2023-08-21T20:15:23;12.97;;;6.73;;
36995;SDS011;22905;50.340;10.776;2023-08-21T20:20:23;14.68;;;5.60;;
36995;SDS011;22905;50.340;10.776;2023-08-21T20:25:25;7.20;;;4.68;;
36995;SDS011;22905;50.340;10.776;2023-08-21T20:30:26;12.05;;;6.18;;
36995;SDS011;22905;50.340;10.776;2023-08-21T20:35:26;11.70;;;5.28;;
36995;SDS011;22905;50.340;10.776;2023-08-21T20:40:26;9.10;;;5.33;;
36995;SDS011;22905;50.340;10.776;2023-08-21T20:45:30;8.27;;;5.18;;
36995;SDS011;22905;50.340;10.776;2023-08-21T20:50:34;10.02;;;5.65;;
36995;SDS011;22905;50.340;10.776;2023-08-21T20:55:34;10.40;;;5.28;;
36995;SDS011;22905;50.340;10.776;2023-08-21T21:00:35;12.43;;;5.38;;
36995;SDS011;22905;50.340;10.776;2023-08-21T21:05:35;11.38;;;5.30;;
36995;SDS011;22905;50.340;10.776;2023-08-21T21:10:36;11.05;;;4.97;;
36995;SDS011;22905;50.340;10.776;2023-08-21T21:15:36;10.32;;;5.43;;
36995;SDS011;22905;50.340;10.776;2023-08-21T21:20:36;18.50;;;5.78;;
36995;SDS011;22905;50.340;10.776;2023-08-21T21:25:37;17.23;;;4.82;;
36995;SDS011;22905;50.340;10.776;2023-08-21T21:30:37;12.35;;;5.40;;
36995;SDS011;22905;50.340;10.776;2023-08-21T21:35:37;16.67;;;5.25;;
36995;SDS011;22905;50.340;10.776;2023-08-21T21:40:41;12.13;;;5.87;;
36995;SDS011;22905;50.340;10.776;2023-08-21T21:45:44;9.10;;;5.60;;
36995;SDS011;22905;50.340;10.776;2023-08-21T21:50:44;15.95;;;6.45;;
36995;SDS011;22905;50.340;10.776;2023-08-21T21:55:44;13.27;;;7.37;;
36995;SDS011;22905;50.340;10.776;2023-08-21T22:00:45;10.50;;;5.20;;
36995;SDS011;22905;50.340;10.776;2023-08-21T22:05:46;7.70;;;5.10;;
36995;SDS011;22905;50.340;10.776;2023-08-21T22:10:46;9.52;;;6.30;;
36995;SDS011;22905;50.340;10.776;2023-08-21T22:15:46;8.30;;;5.03;;
36995;SDS011;22905;50.340;10.776;2023-08-21T22:20:47;15.20;;;5.18;;
36995;SDS011;22905;50.340;10.776;2023-08-21T22:25:47;12.33;;;5.60;;
36995;SDS011;22905;50.340;10.776;2023-08-21T22:30:48;15.68;;;6.45;;
36995;SDS011;22905;50.340;10.776;2023-08-21T22:35:48;14.13;;;5.97;;
36995;SDS011;22905;50.340;10.776;2023-08-21T22:40:48;8.10;;;5.10;;
36995;SDS011;22905;50.340;10.776;2023-08-21T22:45:49;10.98;;;5.85;;
36995;SDS011;22905;50.340;10.776;2023-08-21T22:50:49;10.60;;;6.22;;
36995;SDS011;22905;50.340;10.776;2023-08-21T22:55:53;11.02;;;6.68;;
36995;SDS011;22905;50.340;10.776;2023-08-21T23:00:55;14.18;;;7.05;;
36995;SDS011;22905;50.340;10.776;2023-08-21T23:05:57;12.73;;;6.00;;
36995;SDS011;22905;50.340;10.776;2023-08-21T23:15:59;14.18;;;7.53;;
36995;SDS011;22905;50.340;10.776;2023-08-21T23:21:01;17.13;;;6.72;;
36995;SDS011;22905;50.340;10.776;2023-08-21T23:26:03;8.35;;;6.03;;
36995;SDS011;22905;50.340;10.776;2023-08-21T23:31:04;11.82;;;7.05;;
36995;SDS011;22905;50.340;10.776;2023-08-21T23:36:04;14.18;;;6.82;;
36995;SDS011;22905;50.340;10.776;2023-08-21T23:41:05;10.05;;;7.18;;
36995;SDS011;22905;50.340;10.776;2023-08-21T23:46:05;9.60;;;7.03;;
36995;SDS011;22905;50.340;10.776;2023-08-21T23:51:06;9.70;;;7.05;;
36995;SDS011;22905;50.340;10.776;2023-08-21T23:56:09;12.98;;;7.03;;
